Terminal Aerodrome Forecast
Issued by NWS

Home | Current Version | Previous Version | Text Only | Print | Product List | Glossary On
Versions: 1 2 3 4 5 6 7 8 9 10 11 12 13 14 15 16 17 18 19 20 21
000
FTUS43 KDLH 272300
TAFHIB
TAF
KHIB 272338Z 2800/2824 32010KT P6SM BKN050
     FM280400 34006KT P6SM FEW040
     FM280900 VRB03KT P6SM SKC
     FM281700 35007KT P6SM SCT050
     FM281900 35010KT P6SM VCSH BKN050=

USA.gov is the U.S. government's official web portal to all federal, state and local government web resources and services.